createdAt,value
2022-10-26T00:01:08.698Z,10.66
2022-10-26T00:02:11.895Z,10.66
2022-10-26T00:03:14.831Z,10.64
2022-10-26T00:04:17.996Z,10.64
2022-10-26T00:05:20.352Z,10.64
2022-10-26T00:06:25.308Z,10.63
2022-10-26T00:07:29.665Z,10.56
2022-10-26T00:08:32.745Z,10.62
2022-10-26T00:09:34.826Z,10.62
2022-10-26T00:10:39.426Z,10.56
2022-10-26T00:11:41.846Z,10.61
2022-10-26T00:12:45.034Z,10.59
2022-10-26T00:13:48.059Z,10.59
2022-10-26T00:14:51.110Z,10.58
2022-10-26T00:15:53.449Z,10.57
2022-10-26T00:16:57.855Z,10.54
2022-10-26T00:18:00.003Z,10.54
2022-10-26T00:19:02.980Z,10.52
2022-10-26T00:20:05.554Z,10.51
2022-10-26T00:21:10.461Z,10.49
2022-10-26T00:22:12.473Z,10.48
2022-10-26T00:23:15.476Z,10.46
2022-10-26T00:25:20.379Z,10.42
2022-10-26T00:26:23.436Z,10.40
2022-10-26T00:27:25.424Z,10.40
2022-10-26T00:28:28.731Z,10.39
2022-10-26T00:29:30.741Z,10.38
2022-10-26T00:30:33.746Z,10.38
2022-10-26T00:31:35.816Z,10.37
2022-10-26T00:33:42.349Z,10.35
2022-10-26T00:34:45.379Z,10.35
2022-10-26T00:35:48.182Z,10.35
2022-10-26T00:36:51.197Z,10.34
2022-10-26T00:37:54.750Z,10.32
2022-10-26T00:38:58.644Z,10.32
2022-10-26T00:40:00.720Z,10.30
2022-10-26T00:41:03.793Z,10.30
2022-10-26T00:42:05.875Z,10.30
2022-10-26T00:43:15.859Z,10.29
2022-10-26T00:44:56.726Z,10.27
2022-10-26T00:46:00.234Z,10.27
2022-10-26T00:47:03.526Z,10.26
2022-10-26T00:48:10.635Z,10.24
2022-10-26T00:50:22.715Z,10.24
2022-10-26T00:51:32.896Z,10.23
2022-10-26T00:52:35.354Z,10.18
2022-10-26T00:53:39.034Z,10.21
2022-10-26T00:54:41.476Z,10.20
2022-10-26T00:55:47.140Z,10.19
2022-10-26T00:56:53.320Z,10.17
2022-10-26T00:57:55.657Z,10.16
2022-10-26T00:59:04.848Z,10.15
2022-10-26T01:00:08.453Z,10.08
2022-10-26T01:01:11.549Z,10.11
2022-10-26T01:02:13.860Z,10.09
2022-10-26T01:03:18.980Z,10.05
2022-10-26T01:04:21.699Z,10.06
2022-10-26T01:05:25.466Z,10.04
2022-10-26T01:06:29.194Z,10.03
2022-10-26T01:07:32.867Z,10.01
2022-10-26T01:08:35.084Z,10.00
2022-10-26T01:09:38.274Z,9.98
2022-10-26T01:10:42.896Z,9.96
2022-10-26T01:11:45.915Z,9.95
2022-10-26T01:12:48.011Z,9.94
2022-10-26T01:13:54.242Z,9.93
2022-10-26T01:14:56.379Z,9.93
2022-10-26T01:16:11.082Z,9.92
2022-10-26T01:17:29.644Z,9.91
2022-10-26T01:18:41.603Z,9.91
2022-10-26T01:20:24.087Z,9.90
2022-10-26T01:21:41.694Z,9.88
2022-10-26T01:22:52.436Z,9.86
2022-10-26T01:24:05.432Z,9.86
2022-10-26T01:25:21.773Z,9.85
2022-10-26T01:26:46.731Z,9.83
2022-10-26T01:27:52.394Z,9.80
2022-10-26T01:29:30.311Z,9.79
2022-10-26T01:30:40.168Z,9.78
2022-10-26T01:31:46.964Z,9.76
2022-10-26T01:33:10.636Z,9.73
2022-10-26T01:34:16.330Z,9.74
2022-10-26T01:35:24.663Z,9.74
2022-10-26T01:36:33.858Z,9.74
2022-10-26T01:37:41.782Z,9.73
2022-10-26T01:38:54.535Z,9.73
2022-10-26T01:40:02.956Z,9.73
2022-10-26T01:41:12.607Z,9.73
2022-10-26T01:42:18.398Z,9.73
2022-10-26T01:43:23.344Z,9.72
2022-10-26T01:44:29.577Z,9.71
2022-10-26T01:45:35.441Z,9.71
2022-10-26T01:46:43.470Z,9.62
2022-10-26T01:47:48.230Z,9.69
2022-10-26T01:48:57.031Z,9.67
2022-10-26T01:50:01.175Z,9.67
2022-10-26T01:51:05.864Z,9.59
2022-10-26T01:52:09.874Z,9.64
2022-10-26T01:53:13.626Z,9.64
2022-10-26T01:54:15.671Z,9.61
2022-10-26T01:55:52.605Z,9.62
2022-10-26T01:57:00.324Z,9.61
2022-10-26T01:58:13.581Z,9.60
2022-10-26T01:59:32.089Z,9.60
2022-10-26T02:00:42.883Z,9.58
2022-10-26T02:02:04.128Z,9.60
2022-10-26T02:03:16.727Z,9.59
2022-10-26T02:04:35.039Z,9.60
2022-10-26T02:06:00.490Z,9.61
2022-10-26T02:07:04.458Z,9.59
2022-10-26T02:08:28.257Z,9.58
2022-10-26T02:09:39.437Z,9.58
2022-10-26T02:10:50.956Z,9.56
2022-10-26T02:11:54.242Z,9.57
2022-10-26T02:13:04.474Z,9.55
2022-10-26T02:15:23.307Z,9.56
2022-10-26T02:16:37.278Z,9.57
2022-10-26T02:17:50.051Z,9.58
2022-10-26T02:19:00.919Z,9.60
2022-10-26T02:20:06.291Z,9.60
2022-10-26T02:21:15.569Z,9.61
2022-10-26T02:22:23.211Z,9.61
2022-10-26T02:23:26.419Z,9.60
2022-10-26T02:24:31.559Z,9.51
2022-10-26T02:25:37.651Z,9.61
2022-10-26T02:26:43.191Z,9.60
2022-10-26T02:27:50.546Z,9.58
2022-10-26T02:28:58.044Z,9.58
2022-10-26T02:30:03.948Z,9.57
2022-10-26T02:31:07.755Z,9.57
2022-10-26T02:32:13.262Z,9.56
2022-10-26T02:33:16.227Z,9.54
2022-10-26T02:34:25.215Z,9.56
2022-10-26T02:35:32.161Z,9.55
2022-10-26T02:36:39.277Z,9.56
2022-10-26T02:37:44.794Z,9.56
2022-10-26T02:38:49.855Z,9.56
2022-10-26T02:39:55.669Z,9.53
2022-10-26T02:41:00.893Z,9.56
2022-10-26T02:42:06.723Z,9.52
2022-10-26T02:43:22.188Z,9.58
2022-10-26T02:44:30.159Z,9.57
2022-10-26T02:45:37.095Z,9.56
2022-10-26T02:46:41.119Z,9.51
2022-10-26T02:47:44.998Z,9.53
2022-10-26T02:48:48.475Z,9.51
2022-10-26T02:49:51.082Z,9.50
2022-10-26T02:51:02.307Z,9.49
2022-10-26T02:52:10.925Z,9.44
2022-10-26T02:53:23.924Z,9.45
2022-10-26T02:54:34.277Z,9.44
2022-10-26T02:55:40.665Z,9.41
2022-10-26T02:56:49.137Z,9.38
2022-10-26T02:57:56.009Z,9.39
2022-10-26T02:59:03.245Z,9.37
2022-10-26T03:00:06.805Z,9.36
2022-10-26T03:01:10.134Z,9.35
2022-10-26T03:02:14.400Z,9.34
2022-10-26T03:03:18.790Z,9.34
2022-10-26T03:04:21.880Z,9.33
2022-10-26T03:05:26.105Z,9.34
2022-10-26T03:06:29.355Z,9.35
2022-10-26T03:07:31.414Z,9.30
2022-10-26T03:08:34.556Z,9.34
2022-10-26T03:09:36.718Z,9.33
2022-10-26T03:10:43.103Z,9.32
2022-10-26T03:11:45.229Z,9.30
2022-10-26T03:12:48.832Z,9.29
2022-10-26T03:13:51.069Z,9.28
2022-10-26T03:14:54.202Z,9.25
2022-10-26T03:15:56.872Z,9.24
2022-10-26T03:16:59.990Z,9.24
2022-10-26T03:18:02.099Z,9.23
2022-10-26T03:19:06.762Z,9.22
2022-10-26T03:20:09.759Z,9.21
2022-10-26T03:21:12.825Z,9.15
2022-10-26T03:22:14.923Z,9.20
2022-10-26T03:23:18.022Z,9.18
2022-10-26T03:24:20.081Z,9.18
2022-10-26T03:25:23.169Z,9.17
2022-10-26T03:26:25.537Z,9.18
2022-10-26T03:27:28.578Z,9.17
2022-10-26T03:28:30.644Z,9.17
2022-10-26T03:29:33.716Z,9.15
2022-10-26T03:30:35.919Z,9.17
2022-10-26T03:31:39.111Z,9.16
2022-10-26T03:32:41.249Z,9.15
2022-10-26T03:33:44.352Z,9.14
2022-10-26T03:34:47.796Z,9.14
2022-10-26T03:35:55.970Z,9.13
2022-10-26T03:36:59.269Z,9.11
2022-10-26T03:38:01.339Z,9.11
2022-10-26T03:39:04.463Z,9.10
2022-10-26T03:40:07.864Z,9.10
2022-10-26T03:41:11.018Z,9.09
2022-10-26T03:42:13.127Z,9.09
2022-10-26T03:43:16.223Z,9.08
2022-10-26T03:44:18.316Z,9.08
2022-10-26T03:45:21.479Z,9.06
2022-10-26T03:46:23.600Z,9.07
2022-10-26T03:47:26.680Z,9.07
2022-10-26T03:48:28.724Z,9.08
2022-10-26T03:49:31.867Z,9.07
2022-10-26T03:50:35.287Z,9.08
2022-10-26T03:51:38.369Z,9.06
2022-10-26T03:52:40.539Z,9.06
2022-10-26T03:53:43.659Z,9.04
2022-10-26T03:54:45.741Z,9.04
2022-10-26T03:55:48.791Z,9.02
2022-10-26T03:56:55.135Z,9.01
2022-10-26T03:57:58.512Z,9.00
2022-10-26T03:59:00.809Z,8.99
2022-10-26T04:00:04.000Z,8.99
2022-10-26T04:01:13.980Z,8.99
2022-10-26T04:02:17.481Z,8.99
2022-10-26T04:03:19.647Z,8.95
2022-10-26T04:04:22.786Z,8.97
2022-10-26T04:05:26.269Z,8.96
2022-10-26T04:06:30.721Z,8.95
2022-10-26T04:07:32.810Z,8.95
2022-10-26T04:08:36.082Z,8.96
2022-10-26T04:09:38.146Z,8.96
2022-10-26T04:10:41.242Z,8.95
2022-10-26T04:11:43.420Z,8.94
2022-10-26T04:12:46.482Z,8.94
2022-10-26T04:13:48.582Z,8.93
2022-10-26T04:14:51.721Z,8.92
2022-10-26T04:15:54.036Z,8.91
2022-10-26T04:16:57.185Z,8.90
2022-10-26T04:18:02.126Z,8.88
2022-10-26T04:19:04.341Z,8.89
2022-10-26T04:20:08.983Z,8.88
2022-10-26T04:21:11.056Z,8.87
2022-10-26T04:22:15.822Z,8.87
2022-10-26T04:23:19.279Z,8.85
2022-10-26T04:24:22.368Z,8.85
2022-10-26T04:25:27.458Z,8.84
2022-10-26T04:26:33.235Z,8.84
2022-10-26T04:27:35.612Z,8.84
2022-10-26T04:28:38.691Z,8.84
2022-10-26T04:29:40.784Z,8.83
2022-10-26T04:30:43.963Z,8.84
2022-10-26T04:31:46.066Z,8.84
2022-10-26T04:32:49.349Z,8.83
2022-10-26T04:33:51.639Z,8.84
2022-10-26T04:34:54.732Z,8.84
2022-10-26T04:36:00.027Z,8.85
2022-10-26T04:37:03.114Z,8.84
2022-10-26T04:38:07.638Z,8.83
2022-10-26T04:39:10.740Z,8.83
2022-10-26T04:40:14.792Z,8.85
2022-10-26T04:41:16.985Z,8.85
2022-10-26T04:42:20.102Z,8.86
2022-10-26T04:43:22.172Z,8.85
2022-10-26T04:44:25.248Z,8.87
2022-10-26T04:45:28.679Z,8.87
2022-10-26T04:46:31.838Z,8.86
2022-10-26T04:47:33.921Z,8.85
2022-10-26T04:48:37.083Z,8.87
2022-10-26T04:49:39.168Z,8.87
2022-10-26T04:50:42.345Z,8.88
2022-10-26T04:51:44.469Z,8.87
2022-10-26T04:52:51.839Z,8.88
2022-10-26T04:53:55.981Z,8.88
2022-10-26T04:54:59.063Z,8.87
2022-10-26T04:56:01.577Z,8.88
2022-10-26T04:57:04.858Z,8.88
2022-10-26T04:58:07.322Z,8.88
2022-10-26T04:59:10.402Z,8.89
2022-10-26T05:00:13.329Z,8.88
2022-10-26T05:01:16.612Z,8.89
2022-10-26T05:02:18.777Z,8.88
2022-10-26T05:03:22.096Z,8.86
2022-10-26T05:04:24.178Z,8.83
2022-10-26T05:05:27.254Z,8.87
2022-10-26T05:06:30.718Z,8.86
2022-10-26T05:07:32.776Z,8.85
2022-10-26T05:08:35.922Z,8.86
2022-10-26T05:09:39.399Z,8.87
2022-10-26T05:10:42.597Z,8.86
2022-10-26T05:11:44.651Z,8.85
2022-10-26T05:12:52.099Z,8.85
2022-10-26T05:13:55.190Z,8.84
2022-10-26T05:14:59.158Z,8.85
2022-10-26T05:16:02.301Z,8.85
2022-10-26T05:17:04.425Z,8.84
2022-10-26T05:18:09.025Z,8.84
2022-10-26T05:19:11.359Z,8.83
2022-10-26T05:20:14.578Z,8.84
2022-10-26T05:21:19.764Z,8.82
2022-10-26T05:22:21.982Z,8.82
2022-10-26T05:23:25.120Z,8.81
2022-10-26T05:24:27.178Z,8.80
2022-10-26T05:25:35.050Z,8.82
2022-10-26T05:26:37.092Z,8.82
2022-10-26T05:27:40.157Z,8.79
2022-10-26T05:28:42.273Z,8.81
2022-10-26T05:29:45.408Z,8.82
2022-10-26T05:30:47.581Z,8.81
2022-10-26T05:31:50.687Z,8.79
2022-10-26T05:32:55.731Z,8.79
2022-10-26T05:33:58.783Z,8.78
2022-10-26T05:35:00.887Z,8.78
2022-10-26T05:36:03.995Z,8.78
2022-10-26T05:37:06.086Z,8.77
2022-10-26T05:38:09.733Z,8.76
2022-10-26T05:39:11.782Z,8.75
2022-10-26T05:40:15.611Z,8.75
2022-10-26T05:41:20.082Z,8.74
2022-10-26T05:42:22.163Z,8.72
2022-10-26T05:43:25.503Z,8.71
2022-10-26T05:44:27.604Z,8.69
2022-10-26T05:45:31.272Z,8.64
2022-10-26T05:46:33.323Z,8.68
2022-10-26T05:47:39.409Z,8.68
2022-10-26T05:48:41.524Z,8.66
2022-10-26T05:49:44.553Z,8.66
2022-10-26T05:50:47.974Z,8.65
2022-10-26T05:51:50.012Z,8.65
2022-10-26T05:52:53.081Z,8.65
2022-10-26T05:53:55.149Z,8.65
2022-10-26T05:54:58.284Z,8.65
2022-10-26T05:56:04.878Z,8.65
2022-10-26T05:57:13.677Z,8.63
2022-10-26T05:58:17.500Z,8.63
2022-10-26T05:59:20.078Z,8.64
2022-10-26T06:00:25.187Z,8.60
2022-10-26T06:01:36.286Z,8.63
2022-10-26T06:02:48.705Z,8.62
2022-10-26T06:04:07.127Z,8.62
2022-10-26T06:05:12.379Z,8.62
2022-10-26T06:06:14.889Z,8.60
2022-10-26T06:07:20.101Z,8.61
2022-10-26T06:08:25.521Z,8.60
2022-10-26T06:09:29.181Z,8.57
2022-10-26T06:10:32.005Z,8.60
2022-10-26T06:11:35.784Z,8.59
2022-10-26T06:12:40.790Z,8.60
2022-10-26T06:13:43.435Z,8.61
2022-10-26T06:14:47.081Z,8.60
2022-10-26T06:16:00.913Z,8.61
2022-10-26T06:17:18.611Z,8.61
2022-10-26T06:18:29.965Z,8.63
2022-10-26T06:19:48.535Z,8.63
2022-10-26T06:21:04.871Z,8.63
2022-10-26T06:22:21.940Z,8.54
2022-10-26T06:23:44.812Z,8.64
2022-10-26T06:24:58.327Z,8.65
2022-10-26T06:26:08.227Z,8.65
2022-10-26T06:27:20.712Z,8.66
2022-10-26T06:28:35.549Z,8.65
2022-10-26T06:29:51.403Z,8.65
2022-10-26T06:30:53.520Z,8.67
2022-10-26T06:31:56.760Z,8.65
2022-10-26T06:33:06.365Z,8.66
2022-10-26T06:34:27.519Z,8.66
2022-10-26T06:35:38.190Z,8.67
2022-10-26T06:36:41.520Z,8.66
2022-10-26T06:37:46.703Z,8.65
2022-10-26T06:38:51.062Z,8.65
2022-10-26T06:39:55.811Z,8.65
2022-10-26T06:40:59.486Z,8.64
2022-10-26T06:42:03.438Z,8.64
2022-10-26T06:43:12.642Z,8.63
2022-10-26T06:44:23.682Z,8.63
2022-10-26T06:45:26.594Z,8.64
2022-10-26T06:46:38.296Z,8.62
2022-10-26T06:47:50.168Z,8.62
2022-10-26T06:49:01.130Z,8.64
2022-10-26T06:50:11.376Z,8.64
2022-10-26T06:51:16.480Z,8.64
2022-10-26T06:52:28.540Z,8.65
2022-10-26T06:53:37.152Z,8.64
2022-10-26T06:54:49.919Z,8.67
2022-10-26T06:55:54.122Z,8.69
2022-10-26T06:56:56.639Z,8.67
2022-10-26T06:57:59.931Z,8.69
2022-10-26T06:59:08.820Z,8.72
2022-10-26T07:00:20.774Z,8.73
2022-10-26T07:01:23.091Z,8.74
2022-10-26T07:02:26.521Z,8.75
2022-10-26T07:03:28.698Z,8.76
2022-10-26T07:04:31.748Z,8.74
2022-10-26T07:05:35.079Z,8.79
2022-10-26T07:06:39.389Z,8.82
2022-10-26T07:07:43.776Z,8.84
2022-10-26T07:08:46.848Z,8.86
2022-10-26T07:09:49.593Z,8.89
2022-10-26T07:10:52.649Z,8.92
2022-10-26T07:11:55.728Z,8.95
2022-10-26T07:12:57.897Z,8.96
2022-10-26T07:14:00.991Z,9.02
2022-10-26T07:15:04.894Z,9.03
2022-10-26T07:16:09.654Z,9.06
2022-10-26T07:17:11.709Z,9.07
2022-10-26T07:18:14.929Z,9.11
2022-10-26T07:19:17.017Z,9.13
2022-10-26T07:20:21.829Z,9.16
2022-10-26T07:21:24.139Z,9.19
2022-10-26T07:22:27.219Z,9.22
2022-10-26T07:24:33.295Z,9.29
2022-10-26T07:25:35.704Z,9.30
2022-10-26T07:26:38.762Z,9.32
2022-10-26T07:27:40.830Z,9.37
2022-10-26T07:28:43.896Z,9.39
2022-10-26T07:29:46.061Z,9.38
2022-10-26T07:30:52.764Z,9.45
2022-10-26T07:32:00.529Z,9.47
2022-10-26T07:33:04.839Z,9.51
2022-10-26T07:34:07.855Z,9.54
2022-10-26T07:35:10.106Z,9.57
2022-10-26T07:36:13.646Z,9.60
2022-10-26T07:37:16.715Z,9.62
2022-10-26T07:38:18.819Z,9.65
2022-10-26T07:39:21.863Z,9.68
2022-10-26T07:40:24.160Z,9.71
2022-10-26T07:41:27.259Z,9.74
2022-10-26T07:42:29.417Z,9.77
2022-10-26T07:43:32.542Z,9.81
2022-10-26T07:44:34.615Z,9.83
2022-10-26T07:45:37.833Z,9.85
2022-10-26T07:46:39.851Z,9.89
2022-10-26T07:47:44.394Z,9.92
2022-10-26T07:48:47.531Z,9.94
2022-10-26T07:49:49.578Z,9.96
2022-10-26T07:50:52.626Z,10.00
2022-10-26T07:51:54.634Z,10.02
2022-10-26T07:52:59.520Z,10.06
2022-10-26T07:54:01.658Z,10.09
2022-10-26T07:55:04.909Z,10.13
2022-10-26T07:56:08.634Z,10.17
2022-10-26T07:57:10.661Z,10.20
2022-10-26T07:58:13.828Z,10.23
2022-10-26T07:59:17.136Z,10.25
2022-10-26T08:00:20.337Z,10.28
2022-10-26T08:01:23.805Z,10.34
2022-10-26T08:02:26.093Z,10.38
2022-10-26T08:03:30.522Z,10.37
2022-10-26T08:04:33.654Z,10.45
2022-10-26T08:05:36.216Z,10.49
2022-10-26T08:06:39.482Z,10.53
2022-10-26T08:07:42.829Z,10.56
2022-10-26T08:08:47.684Z,10.62
2022-10-26T08:09:49.916Z,10.66
2022-10-26T08:10:53.873Z,10.71
2022-10-26T08:11:56.912Z,10.75
2022-10-26T08:12:59.959Z,10.80
2022-10-26T08:14:04.071Z,10.80
2022-10-26T08:15:08.350Z,10.90
2022-10-26T08:16:11.522Z,10.92
2022-10-26T08:17:14.542Z,10.97
2022-10-26T08:18:16.591Z,10.95
2022-10-26T08:19:21.332Z,11.06
2022-10-26T08:20:24.395Z,11.09
2022-10-26T08:21:39.152Z,11.14
2022-10-26T08:22:42.761Z,11.18
2022-10-26T08:23:46.126Z,11.22
2022-10-26T08:24:49.141Z,11.24
2022-10-26T08:25:51.207Z,11.32
2022-10-26T08:26:54.260Z,11.35
2022-10-26T08:27:57.340Z,11.39
2022-10-26T08:29:00.422Z,11.44
2022-10-26T08:30:03.870Z,11.49
2022-10-26T08:31:07.852Z,11.52
2022-10-26T08:32:10.041Z,11.55
2022-10-26T08:33:13.119Z,11.59
2022-10-26T08:34:15.492Z,11.63
2022-10-26T08:35:20.270Z,11.66
2022-10-26T08:36:26.332Z,11.69
2022-10-26T08:37:28.594Z,11.74
2022-10-26T08:38:33.896Z,11.76
2022-10-26T08:39:37.004Z,11.78
2022-10-26T08:40:41.557Z,11.81
2022-10-26T08:41:47.157Z,11.84
2022-10-26T08:42:54.310Z,11.88
2022-10-26T08:43:59.323Z,11.91
2022-10-26T08:45:06.616Z,11.91
2022-10-26T08:46:14.888Z,11.98
2022-10-26T08:47:22.313Z,12.00
2022-10-26T08:48:33.315Z,12.04
2022-10-26T08:49:44.485Z,12.08
2022-10-26T08:50:52.636Z,12.10
2022-10-26T08:52:01.130Z,12.13
2022-10-26T08:53:10.680Z,12.18
2022-10-26T08:54:18.268Z,12.20
2022-10-26T08:55:28.136Z,12.22
2022-10-26T08:56:40.722Z,12.27
2022-10-26T08:57:43.042Z,12.29
2022-10-26T08:58:50.827Z,12.33
2022-10-26T08:59:59.208Z,12.36
2022-10-26T09:01:01.540Z,12.39
2022-10-26T09:02:04.994Z,12.42
2022-10-26T09:03:13.176Z,12.43
2022-10-26T09:04:16.330Z,12.48
2022-10-26T09:05:23.590Z,12.50
2022-10-26T09:06:40.520Z,12.52
2022-10-26T09:07:50.917Z,12.56
2022-10-26T09:09:00.867Z,12.58
2022-10-26T09:10:16.719Z,12.62
2022-10-26T09:11:30.194Z,12.66
2022-10-26T09:12:45.578Z,12.70
2022-10-26T09:14:01.097Z,12.63
2022-10-26T09:15:15.367Z,12.75
2022-10-26T09:16:26.322Z,12.77
2022-10-26T09:17:41.470Z,12.81
2022-10-26T09:18:50.848Z,12.83
2022-10-26T09:20:20.334Z,12.88
2022-10-26T09:21:37.075Z,12.92
2022-10-26T09:22:45.469Z,12.95
2022-10-26T09:24:13.961Z,12.99
2022-10-26T09:25:19.789Z,13.02
2022-10-26T09:26:31.134Z,13.05
2022-10-26T09:27:41.885Z,13.05
2022-10-26T09:28:45.779Z,13.09
2022-10-26T09:29:50.942Z,13.11
2022-10-26T09:30:54.298Z,13.14
2022-10-26T09:32:01.626Z,13.16
2022-10-26T09:33:15.282Z,13.19
2022-10-26T09:34:28.010Z,13.22
2022-10-26T09:35:41.589Z,13.25
2022-10-26T09:36:45.257Z,13.24
2022-10-26T09:37:52.981Z,13.29
2022-10-26T09:39:03.982Z,13.32
2022-10-26T09:40:14.663Z,13.34
2022-10-26T09:41:21.423Z,13.39
2022-10-26T09:42:32.606Z,13.41
2022-10-26T09:43:41.802Z,13.44
2022-10-26T09:44:54.919Z,13.47
2022-10-26T09:45:56.979Z,13.49
2022-10-26T09:47:07.172Z,13.51
2022-10-26T09:48:15.879Z,13.54
2022-10-26T09:49:22.322Z,13.57
2022-10-26T09:50:30.205Z,13.60
2022-10-26T09:51:32.868Z,13.63
2022-10-26T09:52:37.342Z,13.66
2022-10-26T09:53:39.357Z,13.70
2022-10-26T09:54:42.488Z,13.72
2022-10-26T09:55:47.015Z,13.75
2022-10-26T09:56:54.437Z,13.79
2022-10-26T09:58:00.862Z,13.81
2022-10-26T09:59:07.073Z,13.85
2022-10-26T10:00:15.586Z,13.89
2022-10-26T10:01:35.462Z,13.93
2022-10-26T10:02:44.828Z,13.97
2022-10-26T10:03:47.984Z,14.01
2022-10-26T10:04:50.059Z,14.04
2022-10-26T10:05:53.974Z,14.08
2022-10-26T10:07:15.206Z,14.10
2022-10-26T10:08:22.654Z,14.16
2022-10-26T10:09:25.843Z,14.16
2022-10-26T10:10:28.861Z,14.20
2022-10-26T10:11:40.063Z,14.23
2022-10-26T10:12:42.249Z,14.26
2022-10-26T10:13:47.596Z,14.27
2022-10-26T10:14:57.821Z,14.30
2022-10-26T10:16:06.576Z,14.33
2022-10-26T10:17:20.027Z,14.29
2022-10-26T10:18:25.174Z,14.37
2022-10-26T10:19:30.434Z,14.39
2022-10-26T10:20:33.431Z,14.42
2022-10-26T10:21:38.581Z,14.44
2022-10-26T10:22:57.939Z,14.47
2022-10-26T10:24:02.467Z,14.49
2022-10-26T10:25:23.217Z,14.50
2022-10-26T10:26:26.327Z,14.53
2022-10-26T10:27:30.463Z,14.55
2022-10-26T10:28:35.309Z,14.57
2022-10-26T10:29:42.517Z,14.58
2022-10-26T10:30:52.917Z,14.61
2022-10-26T10:32:00.436Z,14.64
2022-10-26T10:33:07.066Z,14.65
2022-10-26T10:34:17.679Z,14.68
2022-10-26T10:35:24.604Z,14.73
2022-10-26T10:36:30.439Z,14.76
2022-10-26T10:37:38.224Z,14.75
2022-10-26T10:38:44.581Z,14.81
2022-10-26T10:39:50.380Z,14.84
2022-10-26T10:40:58.217Z,14.86
2022-10-26T10:42:02.355Z,14.87
2022-10-26T10:43:11.535Z,14.87
2022-10-26T10:44:27.002Z,14.92
2022-10-26T10:45:30.847Z,14.94
2022-10-26T10:46:34.435Z,14.96
2022-10-26T10:47:38.602Z,14.93
2022-10-26T10:48:47.398Z,14.95
2022-10-26T10:49:56.952Z,14.99
2022-10-26T10:51:01.404Z,15.01
2022-10-26T10:52:04.927Z,15.03
2022-10-26T10:53:19.521Z,15.06
2022-10-26T10:54:26.846Z,15.08
2022-10-26T10:55:31.705Z,15.12
2022-10-26T10:56:44.122Z,15.14
2022-10-26T10:58:04.028Z,15.14
2022-10-26T10:59:24.482Z,15.22
2022-10-26T11:00:28.011Z,15.26
2022-10-26T11:01:40.005Z,15.29
2022-10-26T11:03:16.944Z,15.34
2022-10-26T11:04:37.793Z,15.37
2022-10-26T11:05:59.412Z,15.42
2022-10-26T11:07:06.255Z,15.47
2022-10-26T11:08:12.439Z,15.51
2022-10-26T11:09:19.899Z,15.55
2022-10-26T11:10:27.358Z,15.58
2022-10-26T11:11:41.701Z,15.60
2022-10-26T11:12:51.928Z,15.65
2022-10-26T11:14:01.522Z,15.67
2022-10-26T11:15:09.592Z,15.70
2022-10-26T11:16:16.458Z,15.67
2022-10-26T11:17:22.565Z,15.72
2022-10-26T11:18:31.627Z,15.75
2022-10-26T11:19:43.803Z,15.78
2022-10-26T11:20:49.730Z,15.80
2022-10-26T11:21:55.963Z,15.82
2022-10-26T11:24:17.689Z,15.85
2022-10-26T11:25:28.331Z,15.87
2022-10-26T11:26:38.670Z,15.88
2022-10-26T11:27:46.155Z,15.92
2022-10-26T11:28:54.702Z,15.95
2022-10-26T11:30:05.201Z,15.99
2022-10-26T11:31:11.071Z,16.03
2022-10-26T11:32:17.935Z,16.06
2022-10-26T11:33:27.049Z,16.08
2022-10-26T11:34:37.306Z,16.11
2022-10-26T11:35:46.696Z,16.15
2022-10-26T11:36:57.729Z,16.16
2022-10-26T11:38:05.037Z,16.16
2022-10-26T11:39:15.746Z,16.16
2022-10-26T11:40:29.591Z,16.16
2022-10-26T11:41:41.409Z,16.16
2022-10-26T11:42:47.792Z,16.18
2022-10-26T11:43:53.908Z,16.20
2022-10-26T11:45:03.139Z,16.23
2022-10-26T11:46:18.139Z,16.26
2022-10-26T11:47:28.126Z,16.31
2022-10-26T11:48:37.160Z,16.33
2022-10-26T11:49:44.940Z,16.38
2022-10-26T11:50:53.118Z,16.40
2022-10-26T11:52:00.824Z,16.44
2022-10-26T11:53:11.913Z,16.46
2022-10-26T11:54:22.478Z,16.49
2022-10-26T11:55:25.588Z,16.51
2022-10-26T11:56:32.081Z,16.54
2022-10-26T11:57:38.468Z,16.55
2022-10-26T11:58:41.267Z,16.57
2022-10-26T11:59:49.901Z,16.59
2022-10-26T12:00:57.757Z,16.60
2022-10-26T12:02:05.159Z,16.62
2022-10-26T12:03:11.477Z,16.62
2022-10-26T12:04:14.756Z,16.64
2022-10-26T12:05:24.006Z,16.66
2022-10-26T12:06:31.937Z,16.67
2022-10-26T12:07:38.144Z,16.68
2022-10-26T12:08:44.509Z,16.70
2022-10-26T12:09:46.555Z,16.71
2022-10-26T12:10:54.174Z,16.72
2022-10-26T12:12:03.146Z,16.74
2022-10-26T12:13:19.262Z,16.70
2022-10-26T12:14:27.468Z,16.77
2022-10-26T12:16:01.725Z,16.78
2022-10-26T12:17:04.862Z,16.81
2022-10-26T12:18:20.265Z,16.82
2022-10-26T12:19:35.867Z,16.84
2022-10-26T12:21:02.601Z,16.79
2022-10-26T12:22:06.294Z,16.87
2022-10-26T12:23:16.168Z,16.88
2022-10-26T12:24:29.525Z,16.90
2022-10-26T12:25:31.770Z,16.92
2022-10-26T12:26:51.661Z,16.93
2022-10-26T12:27:55.926Z,16.94
2022-10-26T12:29:31.049Z,16.95
2022-10-26T12:30:37.072Z,16.98
2022-10-26T12:31:43.464Z,16.99
2022-10-26T12:32:55.343Z,16.99
2022-10-26T12:33:57.964Z,17.04
2022-10-26T12:35:03.417Z,17.06
2022-10-26T12:36:47.654Z,17.10
2022-10-26T12:37:50.007Z,17.11
2022-10-26T12:39:02.287Z,17.18
2022-10-26T12:40:40.699Z,17.21
2022-10-26T12:41:57.883Z,17.23
2022-10-26T12:45:17.770Z,17.23
2022-10-26T12:46:38.522Z,17.32
2022-10-26T12:48:10.794Z,17.34
2022-10-26T12:49:59.146Z,17.42
2022-10-26T12:51:40.183Z,17.51
2022-10-26T12:52:55.901Z,17.70
2022-10-26T12:54:07.074Z,17.86
2022-10-26T12:55:49.528Z,18.05
2022-10-26T12:57:00.650Z,18.16
2022-10-26T12:58:28.485Z,18.28
2022-10-26T12:59:42.519Z,18.37
2022-10-26T13:00:51.931Z,18.42
2022-10-26T13:02:24.381Z,18.48
2022-10-26T13:03:34.644Z,18.51
2022-10-26T13:05:08.960Z,18.52
2022-10-26T13:06:38.790Z,18.52
2022-10-26T13:07:45.529Z,18.54
2022-10-26T13:08:52.345Z,18.64
2022-10-26T13:10:03.948Z,18.71
2022-10-26T13:11:13.270Z,18.73
2022-10-26T13:12:16.858Z,18.78
2022-10-26T13:13:24.743Z,18.79
2022-10-26T13:14:31.873Z,18.78
2022-10-26T13:15:40.013Z,18.75
2022-10-26T13:16:45.485Z,18.72
2022-10-26T13:17:59.935Z,18.70
2022-10-26T13:19:03.356Z,18.67
2022-10-26T13:20:08.336Z,18.66
2022-10-26T13:21:14.906Z,18.65
2022-10-26T13:22:22.000Z,18.58
2022-10-26T13:23:28.291Z,18.62
2022-10-26T13:24:32.757Z,18.63
2022-10-26T13:25:35.896Z,18.64
2022-10-26T13:27:29.715Z,18.70
2022-10-26T13:28:35.604Z,18.69
2022-10-26T13:30:18.654Z,18.73
2022-10-26T13:31:57.084Z,18.75
2022-10-26T13:33:00.873Z,18.73
2022-10-26T13:34:10.776Z,18.71
2022-10-26T13:35:15.859Z,18.67
2022-10-26T13:36:26.675Z,18.65
2022-10-26T13:37:32.398Z,18.59
2022-10-26T13:38:38.021Z,18.61
2022-10-26T13:39:43.340Z,18.56
2022-10-26T13:40:47.063Z,18.54
2022-10-26T13:41:52.509Z,18.49
2022-10-26T13:42:58.646Z,18.45
2022-10-26T13:44:05.653Z,18.40
2022-10-26T13:45:13.647Z,18.32
2022-10-26T13:46:28.815Z,18.26
2022-10-26T13:47:42.516Z,18.22
2022-10-26T13:48:48.111Z,18.15
2022-10-26T13:49:56.530Z,18.10
2022-10-26T13:51:03.300Z,18.03
2022-10-26T13:52:14.251Z,18.01
2022-10-26T13:53:22.507Z,17.99
2022-10-26T13:54:31.911Z,17.96
2022-10-26T13:55:38.366Z,17.93
2022-10-26T13:56:46.981Z,17.95
2022-10-26T13:58:03.872Z,17.95
2022-10-26T13:59:10.579Z,17.93
2022-10-26T14:00:19.488Z,17.91
2022-10-26T14:01:26.374Z,17.89
2022-10-26T14:02:30.555Z,17.86
2022-10-26T14:03:34.047Z,17.85
2022-10-26T14:04:37.234Z,17.83
2022-10-26T14:05:43.165Z,17.79
2022-10-26T14:06:50.896Z,17.76
2022-10-26T14:07:57.832Z,17.73
2022-10-26T14:09:02.899Z,17.70
2022-10-26T14:10:06.973Z,17.68
2022-10-26T14:11:12.872Z,17.65
2022-10-26T14:12:16.193Z,17.64
2022-10-26T14:13:23.932Z,17.62
2022-10-26T14:14:30.258Z,17.52
2022-10-26T14:15:35.351Z,17.60
2022-10-26T14:16:46.502Z,17.59
2022-10-26T14:17:52.709Z,17.59
2022-10-26T14:18:58.265Z,17.59
2022-10-26T14:20:02.110Z,17.59
2022-10-26T14:21:08.375Z,17.59
2022-10-26T14:22:23.151Z,17.59
2022-10-26T14:23:26.928Z,17.59
2022-10-26T14:24:47.024Z,17.58
2022-10-26T14:25:58.697Z,17.60
2022-10-26T14:27:06.013Z,17.62
2022-10-26T14:28:27.358Z,17.62
2022-10-26T14:29:33.434Z,17.65
2022-10-26T14:30:38.004Z,17.66
2022-10-26T14:31:41.136Z,17.66
2022-10-26T14:32:45.151Z,17.69
2022-10-26T14:33:48.762Z,17.70
2022-10-26T14:34:53.023Z,17.65
2022-10-26T14:35:57.693Z,17.71
2022-10-26T14:37:03.824Z,17.72
2022-10-26T14:38:11.752Z,17.73
2022-10-26T14:39:25.732Z,17.73
2022-10-26T14:40:32.379Z,17.69
2022-10-26T14:41:37.138Z,17.73
2022-10-26T14:42:45.937Z,17.71
2022-10-26T14:43:49.443Z,17.74
2022-10-26T14:44:51.915Z,17.72
2022-10-26T14:45:57.352Z,17.73
2022-10-26T14:47:00.505Z,17.71
2022-10-26T14:48:05.812Z,17.68